メインページ
METAR-TAF:

METAR-TAF

空港 :

バーレーン国際空港

バーレーン, バーレーン

緯度: 26-16N, 経度: 050-39E, 海抜: 2m

現時点の気象観測

当レポートは33分前の18:00(UTC)に作成
南/南東の風 8kt
気温 27°C
湿度 51%
気圧 1015 hPa
視程10km以上
1,500メートル以下は雲なし、積乱雲なし

METAR: OBBI 171800Z 15008KT CAVOK 27/16 Q1015 NOSIG

時間: 21:33 (18:33 UTC)

予報

当レポートは1時間33分前の17:00(UTC)に作成
予報は17日の 18時(UTC)から 19日の 00時(UTC)まで有効
南東の風 15kt
視程10km以上
高度3000ftの雲はほとんどない
高度10000ftの雲は散在している
確率 30% :
17日の 18時(UTC)から 19日の 00時(UTC)まで一時的に
変向風 20kt、最大30ktの突風を伴う
視程: 4000m
高度4000ftの雲はほとんどない, 積乱雲.
高度8000ftの千切れ雲あり
激しい雷雨, 雨

TAF: OBBI 171700Z 1718/1900 13015KT 9999 FEW030 SCT100 PROB30 TEMPO 1718/1900 VRB20G30KT 4000 TSRA FEW040CB BKN080

4,000以上の空港の気象観測と天気予報(METAR報とTAF報)

利用可能な観測所は地図上に黄色い丸と赤い丸で示す。

丸の上にカーソルを重ねると観測所名を参照できる。

次にクリックすると気象観測と天気予報を参照できる。

マップの切り替え:黒色「×」印の緑ボタンをクリックして拡大、「-」印の緑ボタンをクリックして縮小、緑色の三角印をクリックして隣りの地図に切り替え


METAR-TAF: